createdAt,value
2022-09-16T00:00:45.377Z,15.68
2022-09-16T00:03:13.476Z,15.68
2022-09-16T00:05:43.101Z,15.64
2022-09-16T00:08:10.384Z,15.69
2022-09-16T00:10:37.350Z,15.59
2022-09-16T00:13:05.316Z,15.82
2022-09-16T00:15:32.303Z,15.79
2022-09-16T00:17:59.648Z,15.74
2022-09-16T00:20:26.773Z,15.51
2022-09-16T00:22:54.199Z,15.69
2022-09-16T00:25:21.043Z,15.52
2022-09-16T00:27:49.427Z,15.65
2022-09-16T00:30:16.509Z,15.70
2022-09-16T00:32:44.405Z,15.66
2022-09-16T00:35:11.343Z,15.74
2022-09-16T00:37:38.176Z,15.59
2022-09-16T00:40:05.690Z,15.60
2022-09-16T00:42:39.032Z,15.63
2022-09-16T00:45:24.833Z,15.77
2022-09-16T00:47:58.087Z,15.66
2022-09-16T00:50:57.463Z,15.67
2022-09-16T00:53:34.388Z,15.72
2022-09-16T00:56:06.352Z,15.74
2022-09-16T00:59:04.431Z,15.78
2022-09-16T01:01:32.669Z,15.77
2022-09-16T01:04:07.070Z,15.72
2022-09-16T01:06:39.077Z,15.72
2022-09-16T01:09:06.709Z,15.68
2022-09-16T01:11:33.565Z,15.71
2022-09-16T01:14:21.192Z,15.71
2022-09-16T01:17:06.648Z,15.67
2022-09-16T01:20:16.812Z,15.65
2022-09-16T01:23:11.296Z,15.68
2022-09-16T01:26:14.250Z,15.68
2022-09-16T01:29:02.072Z,15.76
2022-09-16T01:31:46.877Z,15.80
2022-09-16T01:34:54.281Z,15.66
2022-09-16T01:37:58.569Z,15.82
2022-09-16T01:40:55.646Z,15.65
2022-09-16T01:43:54.603Z,15.82
2022-09-16T01:46:39.803Z,15.76
2022-09-16T01:49:26.530Z,15.67
2022-09-16T01:52:22.164Z,15.65
2022-09-16T01:55:05.496Z,15.75
2022-09-16T01:57:59.939Z,15.64
2022-09-16T02:00:27.641Z,15.56
2022-09-16T02:03:09.415Z,15.71
2022-09-16T02:05:36.053Z,15.65
2022-09-16T02:08:10.210Z,15.65
2022-09-16T02:10:56.553Z,15.67
2022-09-16T02:13:37.251Z,15.61
2022-09-16T02:16:17.792Z,15.60
2022-09-16T02:18:51.470Z,15.52
2022-09-16T02:21:19.725Z,15.49
2022-09-16T02:23:52.858Z,15.58
2022-09-16T02:26:26.668Z,15.48
2022-09-16T02:28:56.086Z,15.56
2022-09-16T02:31:30.523Z,15.36
2022-09-16T02:34:13.086Z,15.43
2022-09-16T02:36:44.730Z,15.44
2022-09-16T02:39:17.233Z,15.50
2022-09-16T02:41:44.175Z,15.43
2022-09-16T02:44:11.768Z,15.48
2022-09-16T02:46:50.115Z,15.49
2022-09-16T02:49:28.312Z,15.52
2022-09-16T02:52:05.549Z,15.62
2022-09-16T02:54:49.337Z,15.64
2022-09-16T02:57:16.526Z,15.57
2022-09-16T02:59:44.157Z,15.54
2022-09-16T03:02:11.433Z,15.59
2022-09-16T03:04:38.317Z,15.48
2022-09-16T03:07:08.392Z,15.51
2022-09-16T03:09:41.736Z,15.53
2022-09-16T03:12:45.480Z,15.66
2022-09-16T03:15:41.324Z,15.70
2022-09-16T03:18:56.449Z,15.67
2022-09-16T03:21:44.272Z,15.62
2022-09-16T03:24:32.728Z,15.59
2022-09-16T03:27:04.251Z,15.64
2022-09-16T03:29:52.762Z,15.70
2022-09-16T03:32:26.828Z,15.69
2022-09-16T03:35:07.581Z,15.69
2022-09-16T03:37:37.728Z,15.69
2022-09-16T03:40:11.778Z,15.69
2022-09-16T03:42:40.818Z,15.68
2022-09-16T03:45:09.994Z,15.63
2022-09-16T03:47:36.910Z,15.61
2022-09-16T03:50:04.573Z,15.62
2022-09-16T03:52:31.429Z,15.57
2022-09-16T03:54:58.248Z,15.67
2022-09-16T03:57:25.267Z,15.68
2022-09-16T03:59:52.071Z,15.52
2022-09-16T04:02:18.921Z,15.56
2022-09-16T04:04:46.087Z,15.52
2022-09-16T04:07:12.902Z,15.57
2022-09-16T04:09:39.710Z,15.40
2022-09-16T04:12:07.571Z,15.66
2022-09-16T04:14:35.423Z,15.61
2022-09-16T04:17:02.636Z,15.68
2022-09-16T04:19:29.500Z,15.54
2022-09-16T04:21:56.291Z,15.57
2022-09-16T04:24:23.104Z,15.64
2022-09-16T04:26:50.009Z,15.57
2022-09-16T04:29:17.387Z,15.58
2022-09-16T04:31:44.371Z,15.56
2022-09-16T04:34:12.030Z,15.54
2022-09-16T04:36:39.640Z,15.60
2022-09-16T04:39:06.851Z,15.60
2022-09-16T04:41:33.906Z,15.62
2022-09-16T04:44:01.238Z,15.49
2022-09-16T04:46:30.368Z,15.55
2022-09-16T04:48:57.388Z,15.58
2022-09-16T04:51:27.316Z,15.62
2022-09-16T04:53:56.371Z,15.68
2022-09-16T04:56:26.678Z,15.64
2022-09-16T04:58:56.205Z,15.68
2022-09-16T05:01:27.338Z,15.60
2022-09-16T05:03:59.030Z,15.67
2022-09-16T05:06:32.901Z,15.69
2022-09-16T05:09:01.064Z,15.70
2022-09-16T05:11:31.814Z,15.68
2022-09-16T05:14:00.398Z,15.74
2022-09-16T05:16:27.820Z,15.68
2022-09-16T05:18:57.371Z,15.76
2022-09-16T05:21:28.074Z,15.80
2022-09-16T05:23:59.137Z,15.64
2022-09-16T05:26:29.471Z,15.72
2022-09-16T05:28:56.295Z,15.62
2022-09-16T05:31:30.419Z,15.62
2022-09-16T05:34:04.339Z,15.68
2022-09-16T05:36:34.827Z,15.77
2022-09-16T05:39:22.142Z,15.76
2022-09-16T05:41:49.424Z,15.79
2022-09-16T05:44:16.340Z,15.71
2022-09-16T05:46:43.795Z,15.81
2022-09-16T05:49:11.174Z,15.68
2022-09-16T05:51:41.184Z,15.72
2022-09-16T05:54:08.317Z,15.73
2022-09-16T05:56:35.299Z,15.79
2022-09-16T05:59:02.616Z,15.76
2022-09-16T06:01:35.558Z,15.79
2022-09-16T06:04:05.709Z,15.80
2022-09-16T06:06:35.899Z,15.75
2022-09-16T06:09:12.175Z,15.71
2022-09-16T06:11:43.038Z,15.74
2022-09-16T06:14:11.396Z,15.59
2022-09-16T06:16:38.921Z,15.70
2022-09-16T06:19:10.600Z,15.63
2022-09-16T06:21:38.504Z,15.63
2022-09-16T06:24:10.041Z,15.66
2022-09-16T06:26:40.019Z,15.67
2022-09-16T06:29:08.128Z,15.70
2022-09-16T06:31:36.707Z,15.63
2022-09-16T06:34:05.455Z,15.63
2022-09-16T06:36:42.620Z,15.59
2022-09-16T06:39:16.366Z,15.42
2022-09-16T06:41:43.723Z,15.40
2022-09-16T06:44:10.624Z,15.56
2022-09-16T06:46:37.722Z,15.58
2022-09-16T06:49:06.356Z,15.60
2022-09-16T06:51:34.989Z,15.56
2022-09-16T06:54:05.597Z,15.53
2022-09-16T06:56:35.868Z,15.61
2022-09-16T06:59:02.917Z,15.55
2022-09-16T07:01:31.346Z,15.56
2022-09-16T07:04:02.840Z,15.61
2022-09-16T07:07:04.799Z,15.67
2022-09-16T07:09:17.976Z,15.51
2022-09-16T07:11:45.046Z,15.53
2022-09-16T07:14:12.369Z,15.58
2022-09-16T07:16:39.279Z,15.66
2022-09-16T07:19:06.486Z,15.57
2022-09-16T07:21:33.594Z,15.66
2022-09-16T07:24:02.805Z,15.68
2022-09-16T07:26:35.452Z,15.63
2022-09-16T07:29:05.093Z,15.50
2022-09-16T07:31:36.900Z,15.41
2022-09-16T07:34:07.493Z,15.29
2022-09-16T07:36:46.352Z,15.41
2022-09-16T07:39:16.141Z,15.33
2022-09-16T07:41:44.972Z,15.36
2022-09-16T07:44:14.996Z,15.25
2022-09-16T07:46:42.074Z,15.12
2022-09-16T07:49:13.109Z,15.14
2022-09-16T07:51:39.975Z,15.22
2022-09-16T07:54:14.576Z,15.08
2022-09-16T07:56:42.866Z,15.25
2022-09-16T07:59:18.403Z,15.27
2022-09-16T08:01:46.031Z,15.30
2022-09-16T08:04:13.673Z,15.31
2022-09-16T08:06:40.633Z,15.32
2022-09-16T08:09:27.384Z,15.24
2022-09-16T08:11:54.597Z,15.27
2022-09-16T08:14:21.508Z,15.23
2022-09-16T08:16:51.382Z,15.23
2022-09-16T08:19:19.270Z,15.16
2022-09-16T08:21:46.229Z,15.24
2022-09-16T08:24:13.152Z,15.20
2022-09-16T08:26:40.407Z,15.21
2022-09-16T08:29:09.341Z,15.32
2022-09-16T08:31:38.125Z,15.38
2022-09-16T08:34:06.044Z,15.42
2022-09-16T08:36:33.843Z,15.35
2022-09-16T08:39:01.055Z,15.24
2022-09-16T08:42:20.963Z,15.35
2022-09-16T08:45:09.896Z,15.30
2022-09-16T08:47:48.180Z,15.22
2022-09-16T08:50:39.551Z,15.29
2022-09-16T08:53:16.060Z,15.29
2022-09-16T08:55:50.187Z,15.26
2022-09-16T08:58:32.148Z,15.22
2022-09-16T09:01:05.184Z,15.41
2022-09-16T09:03:44.435Z,15.52
2022-09-16T09:06:46.798Z,15.50
2022-09-16T09:09:41.010Z,15.51
2022-09-16T09:12:44.133Z,15.49
2022-09-16T09:15:41.916Z,15.38
2022-09-16T09:18:37.805Z,15.38
2022-09-16T09:21:27.253Z,15.54
2022-09-16T09:24:03.013Z,15.57
2022-09-16T09:26:57.039Z,15.64
2022-09-16T09:29:48.622Z,15.56
2022-09-16T09:32:25.508Z,15.68
2022-09-16T09:35:18.234Z,15.79
2022-09-16T09:37:58.988Z,15.71
2022-09-16T09:40:46.049Z,15.78
2022-09-16T09:43:37.432Z,15.70
2022-09-16T09:46:31.096Z,15.71
2022-09-16T09:49:08.479Z,15.65
2022-09-16T09:51:42.637Z,15.66
2022-09-16T09:54:26.102Z,15.62
2022-09-16T09:57:03.328Z,15.61
2022-09-16T09:59:36.109Z,15.61
2022-09-16T10:02:03.154Z,15.69
2022-09-16T10:04:38.143Z,15.78
2022-09-16T10:07:07.206Z,15.47
2022-09-16T10:09:36.181Z,15.46
2022-09-16T10:12:04.629Z,15.53
2022-09-16T10:14:36.521Z,15.67
2022-09-16T10:17:12.147Z,15.63
2022-09-16T10:20:05.980Z,15.75
2022-09-16T10:22:35.455Z,15.75
2022-09-16T10:25:18.608Z,15.54
2022-09-16T10:27:58.256Z,15.81
2022-09-16T10:30:25.122Z,15.82
2022-09-16T10:33:01.393Z,15.95
2022-09-16T10:35:37.728Z,15.90
2022-09-16T10:38:21.477Z,15.99
2022-09-16T10:41:16.187Z,15.93
2022-09-16T10:43:59.738Z,16.07
2022-09-16T10:46:28.067Z,16.02
2022-09-16T10:49:02.163Z,16.25
2022-09-16T10:51:31.344Z,16.24
2022-09-16T10:54:02.129Z,16.13
2022-09-16T10:56:35.632Z,16.24
2022-09-16T10:59:13.377Z,16.24
2022-09-16T11:02:07.913Z,16.01
2022-09-16T11:05:10.165Z,16.12
2022-09-16T11:08:04.219Z,16.11
2022-09-16T11:11:19.680Z,16.12
2022-09-16T11:14:01.844Z,15.89
2022-09-16T11:17:03.169Z,15.83
2022-09-16T11:20:00.163Z,15.98
2022-09-16T11:22:42.132Z,16.00
2022-09-16T11:25:42.821Z,16.03
2022-09-16T11:28:38.318Z,16.09
2022-09-16T11:31:50.674Z,16.12
2022-09-16T11:34:48.362Z,16.14
2022-09-16T11:37:35.154Z,16.11
2022-09-16T11:40:33.683Z,16.04
2022-09-16T11:43:36.551Z,16.05
2022-09-16T11:46:47.241Z,16.13
2022-09-16T11:49:39.654Z,16.08
2022-09-16T11:52:20.309Z,16.14
2022-09-16T11:55:20.883Z,16.03
2022-09-16T11:57:55.159Z,15.98
2022-09-16T12:00:22.407Z,16.07
2022-09-16T12:03:11.761Z,16.18
2022-09-16T12:05:53.508Z,16.21
2022-09-16T12:08:37.501Z,16.27
2022-09-16T12:11:21.968Z,16.28
2022-09-16T12:14:05.330Z,16.35
2022-09-16T12:16:55.301Z,16.30
2022-09-16T12:19:42.313Z,16.44
2022-09-16T12:22:17.170Z,16.53
2022-09-16T12:24:51.962Z,16.45
2022-09-16T12:27:49.985Z,16.71
2022-09-16T12:30:25.385Z,16.74
2022-09-16T12:33:20.906Z,16.85
2022-09-16T12:36:04.285Z,16.71
2022-09-16T12:38:31.431Z,16.68
2022-09-16T12:41:36.781Z,16.78
2022-09-16T12:44:34.027Z,16.74
2022-09-16T12:47:23.591Z,16.70
2022-09-16T12:50:27.885Z,16.71
2022-09-16T12:53:19.221Z,16.76
2022-09-16T12:56:14.209Z,16.69
2022-09-16T12:59:01.879Z,16.45
2022-09-16T13:01:44.962Z,16.40
2022-09-16T13:04:40.402Z,16.43
2022-09-16T13:07:07.758Z,16.34
2022-09-16T13:09:39.101Z,16.43
2022-09-16T13:15:24.277Z,16.34
2022-09-16T13:17:53.220Z,16.34
2022-09-16T13:20:38.193Z,16.42
2022-09-16T13:23:18.126Z,16.36
2022-09-16T13:26:03.764Z,16.41
2022-09-16T13:28:41.673Z,16.34
2022-09-16T13:31:11.739Z,16.57
2022-09-16T13:33:45.061Z,16.67
2022-09-16T13:36:30.894Z,16.59
2022-09-16T13:39:02.006Z,16.65
2022-09-16T13:41:41.410Z,16.74
2022-09-16T13:44:42.109Z,16.84
2022-09-16T13:47:14.442Z,16.94
2022-09-16T13:50:00.433Z,17.01
2022-09-16T13:52:34.602Z,17.14
2022-09-16T13:55:16.891Z,17.12
2022-09-16T13:57:56.407Z,17.17
2022-09-16T14:00:36.197Z,17.15
2022-09-16T14:03:29.007Z,17.24
2022-09-16T14:06:41.731Z,17.12
2022-09-16T14:09:36.247Z,17.07
2022-09-16T14:12:24.048Z,17.09
2022-09-16T14:14:51.334Z,16.98
2022-09-16T14:17:27.758Z,17.18
2022-09-16T14:19:59.809Z,17.31
2022-09-16T14:22:27.976Z,17.38
2022-09-16T14:25:06.210Z,17.43
2022-09-16T14:27:39.656Z,17.39
2022-09-16T14:30:18.702Z,17.34
2022-09-16T14:32:48.141Z,17.33
2022-09-16T14:35:26.526Z,17.36
2022-09-16T14:38:01.120Z,17.32
2022-09-16T14:40:29.401Z,17.29
2022-09-16T14:43:07.784Z,17.26
2022-09-16T14:45:37.352Z,17.42
2022-09-16T14:48:09.418Z,17.32
2022-09-16T14:50:44.477Z,17.20
2022-09-16T14:53:34.823Z,17.39
2022-09-16T14:56:02.731Z,17.35
2022-09-16T14:58:32.690Z,17.34
2022-09-16T15:01:11.939Z,17.26
2022-09-16T15:03:53.518Z,17.43
2022-09-16T15:06:29.804Z,17.21
2022-09-16T15:09:19.531Z,17.24
2022-09-16T15:11:51.758Z,17.25
2022-09-16T15:14:19.076Z,17.11
2022-09-16T15:16:50.369Z,17.24
2022-09-16T15:19:26.520Z,17.27
2022-09-16T15:21:54.293Z,17.22
2022-09-16T15:24:28.390Z,17.25
2022-09-16T15:26:56.115Z,17.10
2022-09-16T15:29:29.880Z,17.22
2022-09-16T15:32:18.362Z,17.22
2022-09-16T15:34:45.797Z,17.39
2022-09-16T15:37:35.540Z,17.37
2022-09-16T15:40:23.039Z,17.42
2022-09-16T15:43:03.065Z,17.38
2022-09-16T15:45:30.197Z,17.21
2022-09-16T15:48:02.521Z,17.24
2022-09-16T15:50:39.074Z,17.13
2022-09-16T15:53:43.576Z,17.32
2022-09-16T15:56:29.349Z,17.32
2022-09-16T15:59:06.259Z,17.29
2022-09-16T16:01:42.635Z,17.07
2022-09-16T16:04:13.355Z,17.25
2022-09-16T16:06:54.982Z,17.04
2022-09-16T16:09:28.805Z,17.21
2022-09-16T16:12:02.656Z,17.26
2022-09-16T16:14:32.493Z,17.16
2022-09-16T16:17:14.597Z,17.39
2022-09-16T16:19:44.439Z,17.31
2022-09-16T16:22:12.536Z,17.33
2022-09-16T16:24:39.679Z,17.33
2022-09-16T16:27:06.786Z,17.17
2022-09-16T16:29:33.768Z,17.17
2022-09-16T16:32:09.246Z,17.20
2022-09-16T16:34:40.551Z,17.08
2022-09-16T16:37:08.907Z,17.22
2022-09-16T16:39:37.251Z,17.24
2022-09-16T16:42:08.651Z,17.21
2022-09-16T16:44:36.403Z,17.19
2022-09-16T16:47:04.068Z,17.11
2022-09-16T16:49:31.008Z,17.03
2022-09-16T16:51:57.961Z,16.97
2022-09-16T16:54:25.253Z,17.10
2022-09-16T16:56:53.173Z,17.13
2022-09-16T16:59:20.860Z,17.18
2022-09-16T17:01:51.699Z,17.03
2022-09-16T17:04:18.582Z,17.07
2022-09-16T17:06:45.440Z,16.99
2022-09-16T17:09:15.895Z,17.06
2022-09-16T17:12:25.033Z,17.08
2022-09-16T17:14:51.882Z,17.02
2022-09-16T17:17:18.765Z,16.86
2022-09-16T17:19:45.601Z,16.83
2022-09-16T17:22:12.471Z,16.84
2022-09-16T17:24:39.444Z,16.76
2022-09-16T17:27:06.675Z,16.75
2022-09-16T17:29:33.522Z,16.76
2022-09-16T17:32:02.632Z,16.65
2022-09-16T17:34:30.085Z,16.75
2022-09-16T17:36:58.240Z,16.54
2022-09-16T17:39:25.148Z,16.71
2022-09-16T17:41:52.031Z,16.68
2022-09-16T17:44:19.687Z,16.60
2022-09-16T17:46:47.469Z,16.55
2022-09-16T17:49:17.349Z,16.53
2022-09-16T17:51:45.626Z,16.13
2022-09-16T17:54:12.729Z,16.16
2022-09-16T17:56:43.500Z,16.11
2022-09-16T17:59:15.394Z,15.79
2022-09-16T18:01:42.436Z,15.92
2022-09-16T18:04:09.487Z,15.91
2022-09-16T18:06:45.934Z,15.91
2022-09-16T18:09:13.333Z,15.79
2022-09-16T18:11:40.528Z,15.76
2022-09-16T18:14:10.667Z,15.77
2022-09-16T18:16:37.722Z,15.68
2022-09-16T18:19:05.743Z,15.55
2022-09-16T18:21:33.482Z,15.41
2022-09-16T18:24:03.651Z,15.42
2022-09-16T18:26:32.000Z,15.35
2022-09-16T18:29:10.903Z,15.34
2022-09-16T18:31:42.006Z,15.08
2022-09-16T18:34:09.062Z,15.30
2022-09-16T18:36:37.591Z,15.41
2022-09-16T18:39:06.325Z,15.39
2022-09-16T18:41:39.354Z,15.10
2022-09-16T18:44:15.354Z,15.21
2022-09-16T18:46:42.586Z,15.10
2022-09-16T18:49:13.361Z,15.21
2022-09-16T18:51:50.517Z,15.15
2022-09-16T18:54:28.889Z,15.14
2022-09-16T18:56:58.968Z,15.01
2022-09-16T18:59:30.036Z,15.12
2022-09-16T19:02:00.168Z,15.04
2022-09-16T19:04:31.032Z,15.04
2022-09-16T19:07:05.999Z,14.97
2022-09-16T19:09:36.043Z,14.97
2022-09-16T19:12:03.627Z,14.86
2022-09-16T19:14:30.669Z,14.87
2022-09-16T19:16:57.473Z,14.88
2022-09-16T19:19:24.311Z,14.96
2022-09-16T19:21:51.584Z,14.95
2022-09-16T19:24:21.979Z,14.92
2022-09-16T19:26:52.734Z,14.42
2022-09-16T19:29:20.923Z,14.80
2022-09-16T19:31:54.299Z,14.58
2022-09-16T19:34:22.378Z,14.70
2022-09-16T19:36:49.656Z,14.62
2022-09-16T19:39:16.856Z,14.69
2022-09-16T19:41:43.677Z,14.58
2022-09-16T19:44:16.088Z,14.62
2022-09-16T19:46:44.815Z,14.44
2022-09-16T19:49:20.183Z,14.51
2022-09-16T19:51:52.776Z,14.54
2022-09-16T19:54:20.371Z,14.49
2022-09-16T19:56:50.700Z,14.34
2022-09-16T19:59:19.369Z,14.29
2022-09-16T20:01:46.627Z,14.21
2022-09-16T20:04:14.610Z,14.24
2022-09-16T20:06:42.311Z,14.30
2022-09-16T20:09:12.473Z,14.32
2022-09-16T20:11:44.717Z,14.34
2022-09-16T20:14:16.853Z,14.36
2022-09-16T20:16:48.524Z,14.32
2022-09-16T20:19:25.226Z,14.26
2022-09-16T20:21:52.568Z,14.29
2022-09-16T20:24:23.416Z,14.27
2022-09-16T20:26:53.952Z,14.30
2022-09-16T20:29:22.274Z,14.17
2022-09-16T20:31:52.616Z,14.13
2022-09-16T20:34:20.490Z,14.20
2022-09-16T20:36:47.345Z,14.03
2022-09-16T20:39:14.803Z,13.69
2022-09-16T20:41:42.359Z,13.57
2022-09-16T20:44:14.694Z,13.71
2022-09-16T20:46:48.884Z,13.75
2022-09-16T20:49:19.799Z,13.74
2022-09-16T20:51:46.755Z,13.61
2022-09-16T20:54:15.398Z,13.78
2022-09-16T20:56:45.944Z,13.77
2022-09-16T20:59:16.335Z,13.58
2022-09-16T21:01:44.038Z,13.78
2022-09-16T21:04:18.210Z,13.68
2022-09-16T21:06:45.824Z,13.63
2022-09-16T21:09:15.441Z,13.69
2022-09-16T21:11:45.798Z,13.79
2022-09-16T21:14:15.224Z,13.76
2022-09-16T21:16:43.577Z,13.80
2022-09-16T21:19:12.683Z,13.64
2022-09-16T21:21:44.044Z,13.82
2022-09-16T21:24:11.151Z,13.85
2022-09-16T21:26:40.468Z,13.81
2022-09-16T21:29:15.379Z,13.67
2022-09-16T21:31:43.476Z,13.81
2022-09-16T21:34:17.065Z,13.82
2022-09-16T21:36:45.146Z,13.70
2022-09-16T21:39:17.080Z,13.80
2022-09-16T21:41:45.166Z,13.85
2022-09-16T21:44:13.248Z,13.69
2022-09-16T21:46:45.298Z,13.67
2022-09-16T21:49:29.085Z,13.73
2022-09-16T21:51:58.567Z,13.69
2022-09-16T21:54:26.655Z,13.69
2022-09-16T21:56:53.707Z,13.63
2022-09-16T21:59:21.075Z,13.47
2022-09-16T22:01:50.011Z,13.63
2022-09-16T22:04:22.859Z,13.74
2022-09-16T22:06:51.330Z,13.63
2022-09-16T22:09:18.532Z,13.65
2022-09-16T22:11:45.529Z,13.67
2022-09-16T22:14:12.532Z,13.74
2022-09-16T22:16:41.424Z,13.69
2022-09-16T22:19:12.637Z,13.68
2022-09-16T22:21:43.100Z,13.65
2022-09-16T22:24:10.643Z,13.56
2022-09-16T22:26:38.316Z,13.68
2022-09-16T22:29:06.452Z,13.51
2022-09-16T22:31:34.185Z,13.50
2022-09-16T22:34:02.245Z,13.52
2022-09-16T22:36:33.240Z,13.66
2022-09-16T22:39:20.736Z,13.60
2022-09-16T22:41:47.829Z,13.42
2022-09-16T22:44:14.812Z,13.32
2022-09-16T22:46:45.442Z,13.50
2022-09-16T22:49:13.806Z,13.55
2022-09-16T22:51:41.556Z,13.54
2022-09-16T22:54:14.045Z,13.40
2022-09-16T22:56:42.239Z,13.53
2022-09-16T22:59:18.099Z,13.48
2022-09-16T23:01:45.465Z,13.31
2022-09-16T23:04:13.791Z,13.43
2022-09-16T23:06:41.327Z,13.44
2022-09-16T23:09:10.438Z,13.49
2022-09-16T23:11:37.345Z,13.43
2022-09-16T23:14:06.352Z,13.50
2022-09-16T23:16:36.466Z,13.50
2022-09-16T23:19:10.152Z,13.39
2022-09-16T23:21:38.084Z,13.28
2022-09-16T23:24:06.814Z,13.28
2022-09-16T23:26:38.014Z,13.25
2022-09-16T23:29:08.343Z,13.32
2022-09-16T23:31:42.001Z,13.33
2022-09-16T23:34:13.050Z,13.28
2022-09-16T23:36:40.243Z,13.17
2022-09-16T23:39:07.619Z,13.21
2022-09-16T23:41:35.477Z,13.27
2022-09-16T23:44:02.867Z,13.31
2022-09-16T23:46:31.218Z,13.24
2022-09-16T23:48:59.002Z,13.20
2022-09-16T23:51:28.718Z,13.12
2022-09-16T23:53:57.574Z,13.10
2022-09-16T23:56:25.285Z,13.22
2022-09-16T23:58:52.817Z,13.25
